Airfield :
LOGIN :

Register | Disclaimer

   EN    FR    IT 

 










Legend :    VFR   Marginal VFR   IFR   Intensive IFR   Very Intensive IFR
Visi :
Ceiling :
>= 8 km
>= 3000ft
5 to 8 km
1000 to 3000 ft
1500m to 5 km
500 to 1000 ft
800 to 1500m
200 to 500 ft
< 800m
< 200 ft
Symbols :   Thunderstorms  Fog  Heavy snow  Heavy precipitations  Wind > 20 kt
SIGMETs :     Misc.  Thunderstorms  Icing  Turbulence  Mountain Waves  Volcanic Ashes







- Airport Elevation : 142 ft
- IATA code : FLR


LIRQ - Firenze Amerigo Vespucci

CURRENT METAR :
  • 240950Z 34003KT 270V010 9999 -RA FEW030 BKN050 17/16 Q1019

EXPIRED METARs :
  • 240920Z VRB02KT 9999 FEW030 BKN060 17/15 Q1019
  • 240850Z 00000KT 9999 FEW025 BKN060 18/14 Q1019
  • 240820Z VRB02KT 9999 FEW025 BKN060 18/15 Q1019
  • 240750Z VRB01KT 9999 FEW025 BKN070 18/14 Q1019
  • 240720Z VRB01KT 9999 SCT030 BKN070 17/14 Q1019

TAF TAF LIRQ
Valid from the 24 at 06:00 until the 25 at 06:00 UTC


240500Z 2406/2506 VRB04KT 9999 SCT030
TEMPO 2409/2418 4000 TSRA
No reported NOTAMs for that airfield.
3 SIGMETs reported for the Milano FIR (LIMM) :
 
Embedded thunderstorms
LIMM SIGMET 7 VALID 240955/241155 LIMM
LIMM MILANO FIR EMBD TS OBS WI N4509 E01055 - N4514 E01236 - N4621 E01322 - N4537 E01355 - N4332 E01013 - N4404 E00913 - N4509 E01055 TOP FL340 MOV SE NC=
Embedded thunderstorms
LIMM SIGMET 6 VALID 240840/241040 LIMM
LIMM MILANO FIR EMBD TS FCST WI N4404 E00911 - N4310 E00944 - N4442 E01314 - N4520 E01300 - N4404 E00911 TOP FL320 MOV SE INTSF=
SIGMET 3  cancelation
LIMM MILANO FIR CNL SIGMET 3 240635/240835=



MET'MAP, your aeronautical weather chart ! - Copyright ORBIFLY December 2007 - Disclaimer

ORBIFLY MET'MAP TEAM :

Programming & Development : Alexandra Zaïnal
Concept & Development : Baudouin d'Aumeries
Co-Development & Prog : Marc-Olivier Méhu
Technical & hardware support : Manuel Goepfert

Contact : metmap@orbifly.com




SOURCES & CREDITS :

   NOAA